sensor_id;sensor_type;location;lat;lon;timestamp;temperature;humidity
66094;DHT22;52876;49.394;10.892;2022-09-25T00:02:23;12.90;99.90
66094;DHT22;52876;49.394;10.892;2022-09-25T00:04:49;13.10;99.90
66094;DHT22;52876;49.394;10.892;2022-09-25T00:07:17;12.90;99.90
66094;DHT22;52876;49.394;10.892;2022-09-25T00:09:43;12.70;99.90
66094;DHT22;52876;49.394;10.892;2022-09-25T00:12:10;12.60;99.90
66094;DHT22;52876;49.394;10.892;2022-09-25T00:14:36;12.80;99.90
66094;DHT22;52876;49.394;10.892;2022-09-25T00:17:03;12.80;99.90
66094;DHT22;52876;49.394;10.892;2022-09-25T00:19:29;12.70;99.90
66094;DHT22;52876;49.394;10.892;2022-09-25T00:21:55;12.70;99.90
66094;DHT22;52876;49.394;10.892;2022-09-25T00:24:23;12.60;99.90
66094;DHT22;52876;49.394;10.892;2022-09-25T00:26:50;12.70;99.90
66094;DHT22;52876;49.394;10.892;2022-09-25T00:29:17;12.60;99.90
66094;DHT22;52876;49.394;10.892;2022-09-25T00:31:44;12.60;99.90
66094;DHT22;52876;49.394;10.892;2022-09-25T00:34:10;12.60;99.90
66094;DHT22;52876;49.394;10.892;2022-09-25T00:36:37;12.80;99.90
66094;DHT22;52876;49.394;10.892;2022-09-25T00:39:03;12.50;99.90
66094;DHT22;52876;49.394;10.892;2022-09-25T00:41:32;12.70;99.90
66094;DHT22;52876;49.394;10.892;2022-09-25T00:44:00;12.70;99.90
66094;DHT22;52876;49.394;10.892;2022-09-25T00:46:31;12.70;99.90
66094;DHT22;52876;49.394;10.892;2022-09-25T00:49:00;12.70;99.90
66094;DHT22;52876;49.394;10.892;2022-09-25T00:51:31;12.70;99.90
66094;DHT22;52876;49.394;10.892;2022-09-25T00:54:00;12.90;99.90
66094;DHT22;52876;49.394;10.892;2022-09-25T00:56:33;12.70;99.90
66094;DHT22;52876;49.394;10.892;2022-09-25T00:59:01;12.50;99.90
66094;DHT22;52876;49.394;10.892;2022-09-25T01:01:27;12.60;99.90
66094;DHT22;52876;49.394;10.892;2022-09-25T01:03:53;12.70;99.90
66094;DHT22;52876;49.394;10.892;2022-09-25T01:06:20;12.60;99.90
66094;DHT22;52876;49.394;10.892;2022-09-25T01:08:47;12.60;99.90
66094;DHT22;52876;49.394;10.892;2022-09-25T01:11:16;12.90;99.90
66094;DHT22;52876;49.394;10.892;2022-09-25T01:13:43;12.80;99.90
66094;DHT22;52876;49.394;10.892;2022-09-25T01:16:14;12.80;99.90
66094;DHT22;52876;49.394;10.892;2022-09-25T01:19:00;12.60;99.90
66094;DHT22;52876;49.394;10.892;2022-09-25T01:21:36;12.70;99.90
66094;DHT22;52876;49.394;10.892;2022-09-25T01:24:36;12.90;99.90
66094;DHT22;52876;49.394;10.892;2022-09-25T01:27:40;12.70;99.90
66094;DHT22;52876;49.394;10.892;2022-09-25T01:30:11;12.90;99.90
66094;DHT22;52876;49.394;10.892;2022-09-25T01:32:55;16.20;99.90
66094;DHT22;52876;49.394;10.892;2022-09-25T01:35:31;12.80;99.90
66094;DHT22;52876;49.394;10.892;2022-09-25T01:38:09;13.10;99.90
66094;DHT22;52876;49.394;10.892;2022-09-25T01:40:39;12.70;99.90
66094;DHT22;52876;49.394;10.892;2022-09-25T01:43:11;12.80;99.90
66094;DHT22;52876;49.394;10.892;2022-09-25T01:45:42;12.80;99.90
66094;DHT22;52876;49.394;10.892;2022-09-25T01:48:13;12.80;99.90
66094;DHT22;52876;49.394;10.892;2022-09-25T01:50:46;12.60;99.90
66094;DHT22;52876;49.394;10.892;2022-09-25T01:53:18;12.60;99.90
66094;DHT22;52876;49.394;10.892;2022-09-25T01:55:49;12.50;99.90
66094;DHT22;52876;49.394;10.892;2022-09-25T01:58:18;12.40;99.90
66094;DHT22;52876;49.394;10.892;2022-09-25T02:00:51;12.50;99.90
66094;DHT22;52876;49.394;10.892;2022-09-25T02:03:22;13.00;99.90
66094;DHT22;52876;49.394;10.892;2022-09-25T02:05:52;12.50;99.90
66094;DHT22;52876;49.394;10.892;2022-09-25T02:08:22;12.40;99.90
66094;DHT22;52876;49.394;10.892;2022-09-25T02:10:55;12.80;99.90
66094;DHT22;52876;49.394;10.892;2022-09-25T02:13:25;12.40;99.90
66094;DHT22;52876;49.394;10.892;2022-09-25T02:15:56;12.60;99.90
66094;DHT22;52876;49.394;10.892;2022-09-25T02:18:27;12.60;99.90
66094;DHT22;52876;49.394;10.892;2022-09-25T02:21:00;12.60;99.90
66094;DHT22;52876;49.394;10.892;2022-09-25T02:23:43;12.60;99.90
66094;DHT22;52876;49.394;10.892;2022-09-25T02:26:16;12.60;99.90
66094;DHT22;52876;49.394;10.892;2022-09-25T02:31:14;12.50;99.90
66094;DHT22;52876;49.394;10.892;2022-09-25T02:33:43;12.60;99.90
66094;DHT22;52876;49.394;10.892;2022-09-25T02:36:16;12.80;99.90
66094;DHT22;52876;49.394;10.892;2022-09-25T02:38:42;12.70;99.90
66094;DHT22;52876;49.394;10.892;2022-09-25T02:41:16;12.70;99.90
66094;DHT22;52876;49.394;10.892;2022-09-25T02:43:49;12.60;99.90
66094;DHT22;52876;49.394;10.892;2022-09-25T02:46:28;12.70;99.90
66094;DHT22;52876;49.394;10.892;2022-09-25T02:49:00;12.70;99.90
66094;DHT22;52876;49.394;10.892;2022-09-25T02:51:34;12.50;99.90
66094;DHT22;52876;49.394;10.892;2022-09-25T02:54:05;12.60;99.90
66094;DHT22;52876;49.394;10.892;2022-09-25T02:56:37;12.40;99.90
66094;DHT22;52876;49.394;10.892;2022-09-25T02:59:06;12.60;99.90
66094;DHT22;52876;49.394;10.892;2022-09-25T03:01:38;12.50;99.90
66094;DHT22;52876;49.394;10.892;2022-09-25T03:04:06;13.60;99.90
66094;DHT22;52876;49.394;10.892;2022-09-25T03:06:35;12.30;99.90
66094;DHT22;52876;49.394;10.892;2022-09-25T03:09:03;12.40;99.90
66094;DHT22;52876;49.394;10.892;2022-09-25T03:11:30;12.40;99.90
66094;DHT22;52876;49.394;10.892;2022-09-25T03:13:57;12.30;99.90
66094;DHT22;52876;49.394;10.892;2022-09-25T03:16:30;12.40;99.90
66094;DHT22;52876;49.394;10.892;2022-09-25T03:18:58;11.90;99.90
66094;DHT22;52876;49.394;10.892;2022-09-25T03:21:25;14.00;99.90
66094;DHT22;52876;49.394;10.892;2022-09-25T03:23:51;12.50;99.90
66094;DHT22;52876;49.394;10.892;2022-09-25T03:28:46;12.70;99.90
66094;DHT22;52876;49.394;10.892;2022-09-25T03:31:13;12.50;99.90
66094;DHT22;52876;49.394;10.892;2022-09-25T03:33:40;12.70;99.90
66094;DHT22;52876;49.394;10.892;2022-09-25T03:36:10;12.70;99.90
66094;DHT22;52876;49.394;10.892;2022-09-25T03:38:37;12.60;99.90
66094;DHT22;52876;49.394;10.892;2022-09-25T03:41:05;12.60;99.90
66094;DHT22;52876;49.394;10.892;2022-09-25T03:43:31;12.50;99.90
66094;DHT22;52876;49.394;10.892;2022-09-25T03:45:59;12.60;99.90
66094;DHT22;52876;49.394;10.892;2022-09-25T03:48:25;12.80;99.90
66094;DHT22;52876;49.394;10.892;2022-09-25T03:50:51;13.00;99.90
66094;DHT22;52876;49.394;10.892;2022-09-25T03:53:18;12.80;99.90
66094;DHT22;52876;49.394;10.892;2022-09-25T03:58:12;12.80;99.90
66094;DHT22;52876;49.394;10.892;2022-09-25T04:00:39;12.80;99.90
66094;DHT22;52876;49.394;10.892;2022-09-25T04:03:05;12.80;99.90
66094;DHT22;52876;49.394;10.892;2022-09-25T04:05:31;12.70;99.90
66094;DHT22;52876;49.394;10.892;2022-09-25T04:07:57;12.80;99.90
66094;DHT22;52876;49.394;10.892;2022-09-25T04:10:26;13.00;99.90
66094;DHT22;52876;49.394;10.892;2022-09-25T04:12:52;12.70;99.90
66094;DHT22;52876;49.394;10.892;2022-09-25T04:15:18;12.70;99.90
66094;DHT22;52876;49.394;10.892;2022-09-25T04:17:45;12.70;99.90
66094;DHT22;52876;49.394;10.892;2022-09-25T04:20:12;12.70;99.90
66094;DHT22;52876;49.394;10.892;2022-09-25T04:22:39;12.80;99.90
66094;DHT22;52876;49.394;10.892;2022-09-25T04:25:05;12.70;99.90
66094;DHT22;52876;49.394;10.892;2022-09-25T04:27:34;12.90;99.90
66094;DHT22;52876;49.394;10.892;2022-09-25T04:30:00;12.90;99.90
66094;DHT22;52876;49.394;10.892;2022-09-25T04:32:29;13.00;99.90
66094;DHT22;52876;49.394;10.892;2022-09-25T04:34:55;12.90;99.90
66094;DHT22;52876;49.394;10.892;2022-09-25T04:37:21;12.90;99.90
66094;DHT22;52876;49.394;10.892;2022-09-25T04:39:47;12.70;99.90
66094;DHT22;52876;49.394;10.892;2022-09-25T04:42:14;13.00;99.90
66094;DHT22;52876;49.394;10.892;2022-09-25T04:44:41;12.90;99.90
66094;DHT22;52876;49.394;10.892;2022-09-25T04:47:08;13.00;99.90
66094;DHT22;52876;49.394;10.892;2022-09-25T04:49:34;12.90;99.90
66094;DHT22;52876;49.394;10.892;2022-09-25T04:52:01;12.90;99.90
66094;DHT22;52876;49.394;10.892;2022-09-25T04:54:28;16.70;99.90
66094;DHT22;52876;49.394;10.892;2022-09-25T04:56:54;13.10;99.90
66094;DHT22;52876;49.394;10.892;2022-09-25T04:59:20;13.00;99.90
66094;DHT22;52876;49.394;10.892;2022-09-25T05:01:48;13.00;99.90
66094;DHT22;52876;49.394;10.892;2022-09-25T05:04:14;12.90;99.90
66094;DHT22;52876;49.394;10.892;2022-09-25T05:06:42;12.70;99.90
66094;DHT22;52876;49.394;10.892;2022-09-25T05:09:08;12.90;99.90
66094;DHT22;52876;49.394;10.892;2022-09-25T05:11:34;13.10;99.90
66094;DHT22;52876;49.394;10.892;2022-09-25T05:14:00;12.90;99.90
66094;DHT22;52876;49.394;10.892;2022-09-25T05:16:27;13.00;99.90
66094;DHT22;52876;49.394;10.892;2022-09-25T05:18:54;13.00;99.90
66094;DHT22;52876;49.394;10.892;2022-09-25T05:21:20;13.00;99.90
66094;DHT22;52876;49.394;10.892;2022-09-25T05:23:46;13.00;99.90
66094;DHT22;52876;49.394;10.892;2022-09-25T05:26:12;13.00;99.90
66094;DHT22;52876;49.394;10.892;2022-09-25T05:28:38;12.60;99.90
66094;DHT22;52876;49.394;10.892;2022-09-25T05:31:05;12.70;99.90
66094;DHT22;52876;49.394;10.892;2022-09-25T05:33:32;13.30;99.90
66094;DHT22;52876;49.394;10.892;2022-09-25T05:36:01;12.80;99.90
66094;DHT22;52876;49.394;10.892;2022-09-25T05:38:27;12.90;99.90
66094;DHT22;52876;49.394;10.892;2022-09-25T05:40:53;12.80;99.90
66094;DHT22;52876;49.394;10.892;2022-09-25T05:43:19;12.80;99.90
66094;DHT22;52876;49.394;10.892;2022-09-25T05:45:52;12.80;99.90
66094;DHT22;52876;49.394;10.892;2022-09-25T05:48:18;12.90;99.90
66094;DHT22;52876;49.394;10.892;2022-09-25T05:50:50;13.10;99.90
66094;DHT22;52876;49.394;10.892;2022-09-25T05:53:17;12.90;99.90
66094;DHT22;52876;49.394;10.892;2022-09-25T05:55:48;12.80;99.90
66094;DHT22;52876;49.394;10.892;2022-09-25T05:58:14;12.50;99.90
66094;DHT22;52876;49.394;10.892;2022-09-25T06:00:41;12.70;99.90
66094;DHT22;52876;49.394;10.892;2022-09-25T06:03:07;12.50;99.90
66094;DHT22;52876;49.394;10.892;2022-09-25T06:05:33;12.70;99.90
66094;DHT22;52876;49.394;10.892;2022-09-25T06:08:00;12.60;99.90
66094;DHT22;52876;49.394;10.892;2022-09-25T06:10:27;12.70;99.90
66094;DHT22;52876;49.394;10.892;2022-09-25T06:12:55;12.50;99.90
66094;DHT22;52876;49.394;10.892;2022-09-25T06:15:23;12.50;99.90
66094;DHT22;52876;49.394;10.892;2022-09-25T06:17:49;12.20;99.90
66094;DHT22;52876;49.394;10.892;2022-09-25T06:20:16;12.50;99.90
66094;DHT22;52876;49.394;10.892;2022-09-25T06:22:46;12.60;99.90
66094;DHT22;52876;49.394;10.892;2022-09-25T06:27:44;14.50;99.90
66094;DHT22;52876;49.394;10.892;2022-09-25T06:30:11;12.80;99.90
66094;DHT22;52876;49.394;10.892;2022-09-25T06:32:38;11.80;99.90
66094;DHT22;52876;49.394;10.892;2022-09-25T06:35:05;12.70;99.90
66094;DHT22;52876;49.394;10.892;2022-09-25T06:37:32;12.70;99.90
66094;DHT22;52876;49.394;10.892;2022-09-25T06:39:58;12.70;99.90
66094;DHT22;52876;49.394;10.892;2022-09-25T06:42:24;12.80;99.90
66094;DHT22;52876;49.394;10.892;2022-09-25T06:44:51;12.90;99.90
66094;DHT22;52876;49.394;10.892;2022-09-25T06:47:17;12.60;99.90
66094;DHT22;52876;49.394;10.892;2022-09-25T06:49:43;12.80;99.90
66094;DHT22;52876;49.394;10.892;2022-09-25T06:52:09;12.80;99.90
66094;DHT22;52876;49.394;10.892;2022-09-25T06:54:35;12.70;99.90
66094;DHT22;52876;49.394;10.892;2022-09-25T06:57:03;12.60;99.90
66094;DHT22;52876;49.394;10.892;2022-09-25T06:59:29;12.60;99.90
66094;DHT22;52876;49.394;10.892;2022-09-25T07:01:57;12.60;99.90
66094;DHT22;52876;49.394;10.892;2022-09-25T07:04:23;15.70;99.90
66094;DHT22;52876;49.394;10.892;2022-09-25T07:06:49;12.60;99.90
66094;DHT22;52876;49.394;10.892;2022-09-25T07:09:16;12.70;99.90
66094;DHT22;52876;49.394;10.892;2022-09-25T07:11:42;12.60;99.90
66094;DHT22;52876;49.394;10.892;2022-09-25T07:14:08;12.90;99.90
66094;DHT22;52876;49.394;10.892;2022-09-25T07:16:34;12.70;99.90
66094;DHT22;52876;49.394;10.892;2022-09-25T07:19:02;12.70;99.90
66094;DHT22;52876;49.394;10.892;2022-09-25T07:21:28;12.50;99.90
66094;DHT22;52876;49.394;10.892;2022-09-25T07:23:54;12.80;99.90
66094;DHT22;52876;49.394;10.892;2022-09-25T07:26:23;12.90;99.90
66094;DHT22;52876;49.394;10.892;2022-09-25T07:28:53;13.00;99.90
66094;DHT22;52876;49.394;10.892;2022-09-25T07:31:21;13.20;99.90
66094;DHT22;52876;49.394;10.892;2022-09-25T07:33:48;13.10;99.90
66094;DHT22;52876;49.394;10.892;2022-09-25T07:36:17;13.20;99.90
66094;DHT22;52876;49.394;10.892;2022-09-25T07:38:47;13.00;99.90
66094;DHT22;52876;49.394;10.892;2022-09-25T07:43:39;13.20;99.90
66094;DHT22;52876;49.394;10.892;2022-09-25T07:46:07;13.20;99.90
66094;DHT22;52876;49.394;10.892;2022-09-25T07:48:33;13.50;99.90
66094;DHT22;52876;49.394;10.892;2022-09-25T07:50:59;13.40;99.90
66094;DHT22;52876;49.394;10.892;2022-09-25T07:53:27;13.40;99.90
66094;DHT22;52876;49.394;10.892;2022-09-25T07:55:56;13.40;99.90
66094;DHT22;52876;49.394;10.892;2022-09-25T07:58:22;13.50;99.90
66094;DHT22;52876;49.394;10.892;2022-09-25T08:00:49;13.80;99.90
66094;DHT22;52876;49.394;10.892;2022-09-25T08:03:16;14.30;99.90
66094;DHT22;52876;49.394;10.892;2022-09-25T08:05:42;15.30;99.90
66094;DHT22;52876;49.394;10.892;2022-09-25T08:08:09;14.00;99.90
66094;DHT22;52876;49.394;10.892;2022-09-25T08:13:03;14.10;99.90
66094;DHT22;52876;49.394;10.892;2022-09-25T08:15:30;14.20;99.90
66094;DHT22;52876;49.394;10.892;2022-09-25T08:17:57;13.90;99.90
66094;DHT22;52876;49.394;10.892;2022-09-25T08:20:23;13.80;99.90
66094;DHT22;52876;49.394;10.892;2022-09-25T08:22:52;13.90;99.90
66094;DHT22;52876;49.394;10.892;2022-09-25T08:25:20;13.60;99.90
66094;DHT22;52876;49.394;10.892;2022-09-25T08:27:48;13.80;99.90
66094;DHT22;52876;49.394;10.892;2022-09-25T08:30:15;13.80;99.90
66094;DHT22;52876;49.394;10.892;2022-09-25T08:32:43;13.60;99.90
66094;DHT22;52876;49.394;10.892;2022-09-25T08:37:40;14.00;99.90
66094;DHT22;52876;49.394;10.892;2022-09-25T08:40:15;14.30;99.90
66094;DHT22;52876;49.394;10.892;2022-09-25T08:42:43;14.20;99.90
66094;DHT22;52876;49.394;10.892;2022-09-25T08:45:22;14.20;99.90
66094;DHT22;52876;49.394;10.892;2022-09-25T08:47:51;14.30;99.90
66094;DHT22;52876;49.394;10.892;2022-09-25T08:50:23;14.30;99.90
66094;DHT22;52876;49.394;10.892;2022-09-25T08:52:54;12.30;99.90
66094;DHT22;52876;49.394;10.892;2022-09-25T08:55:25;14.70;99.90
66094;DHT22;52876;49.394;10.892;2022-09-25T08:57:52;15.00;99.90
66094;DHT22;52876;49.394;10.892;2022-09-25T09:00:22;15.30;99.90
66094;DHT22;52876;49.394;10.892;2022-09-25T09:02:52;15.20;99.90
66094;DHT22;52876;49.394;10.892;2022-09-25T09:05:22;15.70;99.90
66094;DHT22;52876;49.394;10.892;2022-09-25T09:07:55;15.70;99.90
66094;DHT22;52876;49.394;10.892;2022-09-25T09:10:29;15.70;99.90
66094;DHT22;52876;49.394;10.892;2022-09-25T09:13:01;15.70;99.90
66094;DHT22;52876;49.394;10.892;2022-09-25T09:15:35;15.80;99.90
66094;DHT22;52876;49.394;10.892;2022-09-25T09:18:17;15.80;99.90
66094;DHT22;52876;49.394;10.892;2022-09-25T09:20:50;16.70;99.90
66094;DHT22;52876;49.394;10.892;2022-09-25T09:23:19;16.30;99.90
66094;DHT22;52876;49.394;10.892;2022-09-25T09:26:04;16.30;99.90
66094;DHT22;52876;49.394;10.892;2022-09-25T09:28:55;16.20;99.90
66094;DHT22;52876;49.394;10.892;2022-09-25T09:31:30;16.10;99.90
66094;DHT22;52876;49.394;10.892;2022-09-25T09:34:07;16.30;99.90
66094;DHT22;52876;49.394;10.892;2022-09-25T09:36:43;16.60;99.90
66094;DHT22;52876;49.394;10.892;2022-09-25T09:39:17;16.70;99.90
66094;DHT22;52876;49.394;10.892;2022-09-25T09:41:53;17.70;99.90
66094;DHT22;52876;49.394;10.892;2022-09-25T09:44:35;17.20;99.90
66094;DHT22;52876;49.394;10.892;2022-09-25T09:47:15;17.10;99.90
66094;DHT22;52876;49.394;10.892;2022-09-25T09:49:47;17.20;99.90
66094;DHT22;52876;49.394;10.892;2022-09-25T09:52:18;17.20;99.90
66094;DHT22;52876;49.394;10.892;2022-09-25T09:54:48;17.40;99.90
66094;DHT22;52876;49.394;10.892;2022-09-25T09:57:19;17.30;99.90
66094;DHT22;52876;49.394;10.892;2022-09-25T09:59:51;17.30;99.90
66094;DHT22;52876;49.394;10.892;2022-09-25T10:02:29;17.30;99.90
66094;DHT22;52876;49.394;10.892;2022-09-25T10:04:57;16.70;99.90
66094;DHT22;52876;49.394;10.892;2022-09-25T10:07:28;16.60;99.90
66094;DHT22;52876;49.394;10.892;2022-09-25T10:12:26;16.70;99.90
66094;DHT22;52876;49.394;10.892;2022-09-25T10:14:53;16.80;99.90
66094;DHT22;52876;49.394;10.892;2022-09-25T10:17:22;16.70;99.90
66094;DHT22;52876;49.394;10.892;2022-09-25T10:19:53;16.50;99.90
66094;DHT22;52876;49.394;10.892;2022-09-25T10:22:23;16.40;99.90
66094;DHT22;52876;49.394;10.892;2022-09-25T10:24:54;16.40;99.90
66094;DHT22;52876;49.394;10.892;2022-09-25T10:27:27;16.70;99.90
66094;DHT22;52876;49.394;10.892;2022-09-25T10:30:16;16.80;99.90
66094;DHT22;52876;49.394;10.892;2022-09-25T10:32:51;17.10;99.90
66094;DHT22;52876;49.394;10.892;2022-09-25T10:35:21;17.50;99.90
66094;DHT22;52876;49.394;10.892;2022-09-25T10:37:51;18.50;99.90
66094;DHT22;52876;49.394;10.892;2022-09-25T10:40:24;17.80;99.90
66094;DHT22;52876;49.394;10.892;2022-09-25T10:43:02;18.10;99.90
66094;DHT22;52876;49.394;10.892;2022-09-25T10:45:31;18.00;99.90
66094;DHT22;52876;49.394;10.892;2022-09-25T10:47:59;18.10;99.90
66094;DHT22;52876;49.394;10.892;2022-09-25T10:50:25;18.40;99.90
66094;DHT22;52876;49.394;10.892;2022-09-25T10:52:52;18.70;99.90
66094;DHT22;52876;49.394;10.892;2022-09-25T10:55:22;18.80;99.90
66094;DHT22;52876;49.394;10.892;2022-09-25T10:57:49;19.30;99.90
66094;DHT22;52876;49.394;10.892;2022-09-25T11:00:21;21.10;99.90
66094;DHT22;52876;49.394;10.892;2022-09-25T11:02:52;21.20;99.90
66094;DHT22;52876;49.394;10.892;2022-09-25T11:05:25;21.10;99.90
66094;DHT22;52876;49.394;10.892;2022-09-25T11:07:54;19.60;99.90
66094;DHT22;52876;49.394;10.892;2022-09-25T11:10:23;18.30;99.90
66094;DHT22;52876;49.394;10.892;2022-09-25T11:12:50;16.50;99.90
66094;DHT22;52876;49.394;10.892;2022-09-25T11:15:18;16.50;99.90
66094;DHT22;52876;49.394;10.892;2022-09-25T11:17:49;15.70;99.90
66094;DHT22;52876;49.394;10.892;2022-09-25T11:20:26;15.60;99.90
66094;DHT22;52876;49.394;10.892;2022-09-25T11:23:02;15.00;99.90
66094;DHT22;52876;49.394;10.892;2022-09-25T11:25:42;13.00;99.90
66094;DHT22;52876;49.394;10.892;2022-09-25T11:28:13;14.50;99.90
66094;DHT22;52876;49.394;10.892;2022-09-25T11:30:46;14.30;99.90
66094;DHT22;52876;49.394;10.892;2022-09-25T11:33:31;14.40;99.90
66094;DHT22;52876;49.394;10.892;2022-09-25T11:36:04;14.50;99.90
66094;DHT22;52876;49.394;10.892;2022-09-25T11:38:38;14.20;99.90
66094;DHT22;52876;49.394;10.892;2022-09-25T11:41:11;14.20;99.90
66094;DHT22;52876;49.394;10.892;2022-09-25T11:43:58;14.10;99.90
66094;DHT22;52876;49.394;10.892;2022-09-25T11:46:35;14.30;99.90
66094;DHT22;52876;49.394;10.892;2022-09-25T11:49:11;14.30;99.90
66094;DHT22;52876;49.394;10.892;2022-09-25T11:52:00;14.80;99.90
66094;DHT22;52876;49.394;10.892;2022-09-25T11:54:41;14.90;99.90
66094;DHT22;52876;49.394;10.892;2022-09-25T11:57:14;15.30;99.90
66094;DHT22;52876;49.394;10.892;2022-09-25T12:00:03;15.30;99.90
66094;DHT22;52876;49.394;10.892;2022-09-25T12:02:46;15.40;99.90
66094;DHT22;52876;49.394;10.892;2022-09-25T12:05:38;15.50;99.90
66094;DHT22;52876;49.394;10.892;2022-09-25T12:08:20;15.40;99.90
66094;DHT22;52876;49.394;10.892;2022-09-25T12:10:55;15.00;99.90
66094;DHT22;52876;49.394;10.892;2022-09-25T12:13:34;15.30;99.90
66094;DHT22;52876;49.394;10.892;2022-09-25T12:16:11;15.10;99.90
66094;DHT22;52876;49.394;10.892;2022-09-25T12:18:56;14.60;99.90
66094;DHT22;52876;49.394;10.892;2022-09-25T12:21:31;13.00;99.90
66094;DHT22;52876;49.394;10.892;2022-09-25T12:24:05;14.70;99.90
66094;DHT22;52876;49.394;10.892;2022-09-25T12:26:39;14.80;99.90
66094;DHT22;52876;49.394;10.892;2022-09-25T12:29:19;14.90;99.90
66094;DHT22;52876;49.394;10.892;2022-09-25T12:31:54;15.50;99.90
66094;DHT22;52876;49.394;10.892;2022-09-25T12:34:31;15.90;99.90
66094;DHT22;52876;49.394;10.892;2022-09-25T12:37:07;16.60;99.90
66094;DHT22;52876;49.394;10.892;2022-09-25T12:39:43;16.70;99.90
66094;DHT22;52876;49.394;10.892;2022-09-25T12:42:13;17.80;99.90
66094;DHT22;52876;49.394;10.892;2022-09-25T12:44:45;17.80;99.90
66094;DHT22;52876;49.394;10.892;2022-09-25T12:47:19;18.50;99.90
66094;DHT22;52876;49.394;10.892;2022-09-25T12:49:58;18.80;99.90
66094;DHT22;52876;49.394;10.892;2022-09-25T12:52:36;19.10;99.90
66094;DHT22;52876;49.394;10.892;2022-09-25T12:55:11;18.80;99.90
66094;DHT22;52876;49.394;10.892;2022-09-25T12:57:42;18.30;99.90
66094;DHT22;52876;49.394;10.892;2022-09-25T13:00:16;17.80;99.90
66094;DHT22;52876;49.394;10.892;2022-09-25T13:02:51;17.00;99.90
66094;DHT22;52876;49.394;10.892;2022-09-25T13:05:23;15.20;99.90
66094;DHT22;52876;49.394;10.892;2022-09-25T13:07:57;14.80;99.90
66094;DHT22;52876;49.394;10.892;2022-09-25T13:10:30;15.10;99.90
66094;DHT22;52876;49.394;10.892;2022-09-25T13:13:00;15.20;99.90
66094;DHT22;52876;49.394;10.892;2022-09-25T13:15:30;15.20;99.90
66094;DHT22;52876;49.394;10.892;2022-09-25T13:23:10;15.20;99.90
66094;DHT22;52876;49.394;10.892;2022-09-25T13:25:42;15.30;99.90
66094;DHT22;52876;49.394;10.892;2022-09-25T13:28:16;15.10;99.90
66094;DHT22;52876;49.394;10.892;2022-09-25T13:30:57;14.90;99.90
66094;DHT22;52876;49.394;10.892;2022-09-25T13:36:05;14.50;99.90
66094;DHT22;52876;49.394;10.892;2022-09-25T13:38:31;14.50;99.90
66094;DHT22;52876;49.394;10.892;2022-09-25T13:41:09;14.70;99.90
66094;DHT22;52876;49.394;10.892;2022-09-25T13:43:37;14.50;99.90
66094;DHT22;52876;49.394;10.892;2022-09-25T13:46:23;14.60;99.90
66094;DHT22;52876;49.394;10.892;2022-09-25T13:48:50;14.70;99.90
66094;DHT22;52876;49.394;10.892;2022-09-25T13:51:33;14.60;99.90
66094;DHT22;52876;49.394;10.892;2022-09-25T13:54:02;14.90;99.90
66094;DHT22;52876;49.394;10.892;2022-09-25T13:56:47;15.00;99.90
66094;DHT22;52876;49.394;10.892;2022-09-25T13:59:34;15.20;99.90
66094;DHT22;52876;49.394;10.892;2022-09-25T14:02:40;15.00;99.90
66094;DHT22;52876;49.394;10.892;2022-09-25T14:05:13;15.10;99.90
66094;DHT22;52876;49.394;10.892;2022-09-25T14:07:42;15.00;99.90
66094;DHT22;52876;49.394;10.892;2022-09-25T14:10:10;15.40;99.90
66094;DHT22;52876;49.394;10.892;2022-09-25T14:12:42;15.40;99.90
66094;DHT22;52876;49.394;10.892;2022-09-25T14:15:20;15.40;99.90
66094;DHT22;52876;49.394;10.892;2022-09-25T14:17:49;15.40;99.90
66094;DHT22;52876;49.394;10.892;2022-09-25T14:20:31;15.10;99.90
66094;DHT22;52876;49.394;10.892;2022-09-25T14:23:01;15.10;99.90
66094;DHT22;52876;49.394;10.892;2022-09-25T14:25:32;14.80;99.90
66094;DHT22;52876;49.394;10.892;2022-09-25T14:28:01;14.60;99.90
66094;DHT22;52876;49.394;10.892;2022-09-25T14:30:39;14.60;99.90
66094;DHT22;52876;49.394;10.892;2022-09-25T14:36:05;14.50;99.90
66094;DHT22;52876;49.394;10.892;2022-09-25T14:38:58;14.40;99.90
66094;DHT22;52876;49.394;10.892;2022-09-25T14:41:53;14.60;99.90
66094;DHT22;52876;49.394;10.892;2022-09-25T14:44:41;14.60;99.90
66094;DHT22;52876;49.394;10.892;2022-09-25T14:47:13;14.80;99.90
66094;DHT22;52876;49.394;10.892;2022-09-25T14:49:45;15.00;99.90
66094;DHT22;52876;49.394;10.892;2022-09-25T14:52:15;14.80;99.90
66094;DHT22;52876;49.394;10.892;2022-09-25T14:54:44;14.90;99.90
66094;DHT22;52876;49.394;10.892;2022-09-25T14:57:14;14.90;99.90
66094;DHT22;52876;49.394;10.892;2022-09-25T14:59:48;14.70;99.90
66094;DHT22;52876;49.394;10.892;2022-09-25T15:02:18;14.40;99.90
66094;DHT22;52876;49.394;10.892;2022-09-25T15:04:47;14.60;99.90
66094;DHT22;52876;49.394;10.892;2022-09-25T15:07:17;14.50;99.90
66094;DHT22;52876;49.394;10.892;2022-09-25T15:09:46;14.50;99.90
66094;DHT22;52876;49.394;10.892;2022-09-25T15:12:19;14.60;99.90
66094;DHT22;52876;49.394;10.892;2022-09-25T15:15:01;14.80;99.90
66094;DHT22;52876;49.394;10.892;2022-09-25T15:17:31;14.80;99.90
66094;DHT22;52876;49.394;10.892;2022-09-25T15:20:03;14.70;99.90
66094;DHT22;52876;49.394;10.892;2022-09-25T15:22:36;14.90;99.90
66094;DHT22;52876;49.394;10.892;2022-09-25T15:25:06;14.70;99.90
66094;DHT22;52876;49.394;10.892;2022-09-25T15:27:34;14.80;99.90
66094;DHT22;52876;49.394;10.892;2022-09-25T15:30:14;14.90;99.90
66094;DHT22;52876;49.394;10.892;2022-09-25T15:32:42;15.70;99.90
66094;DHT22;52876;49.394;10.892;2022-09-25T15:35:15;15.20;99.90
66094;DHT22;52876;49.394;10.892;2022-09-25T15:37:43;15.40;99.90
66094;DHT22;52876;49.394;10.892;2022-09-25T15:40:19;15.30;99.90
66094;DHT22;52876;49.394;10.892;2022-09-25T15:42:47;15.40;99.90
66094;DHT22;52876;49.394;10.892;2022-09-25T15:45:35;15.40;99.90
66094;DHT22;52876;49.394;10.892;2022-09-25T15:48:08;15.10;99.90
66094;DHT22;52876;49.394;10.892;2022-09-25T15:50:36;15.00;99.90
66094;DHT22;52876;49.394;10.892;2022-09-25T15:53:02;15.10;99.90
66094;DHT22;52876;49.394;10.892;2022-09-25T15:55:30;13.80;99.90
66094;DHT22;52876;49.394;10.892;2022-09-25T15:58:04;14.90;99.90
66094;DHT22;52876;49.394;10.892;2022-09-25T16:00:34;15.00;99.90
66094;DHT22;52876;49.394;10.892;2022-09-25T16:03:03;14.90;99.90
66094;DHT22;52876;49.394;10.892;2022-09-25T16:05:32;14.90;99.90
66094;DHT22;52876;49.394;10.892;2022-09-25T16:08:15;14.80;99.90
66094;DHT22;52876;49.394;10.892;2022-09-25T16:10:43;14.60;99.90